Terminal Aerodrome Forecast
Issued by NWS Topeka, KS

Home | Current Version | Previous Version | Text Only | Print | Product List | Glossary On
Versions: 1 2 3 4 5 6 7 8 9 10 11 12 13 14 15 16 17 18 19 20 21 22 23 24 25 26 27 28
000
FTUS43 KTOP 241126
TAFTOP
TAF
KTOP 241126Z 2412/2512 10012KT 6SM BR SCT200 WS020/15040KT
     FM241500 14014G23KT P6SM BKN080
     FM242000 19015G23KT P6SM SCT150
     FM242300 22011KT P6SM SCT150
     FM250600 26012G22KT P6SM BKN050=

USA.gov is the U.S. government's official web portal to all federal, state and local government web resources and services.